Time;durP1;ratioP1;P1;durP2;ratioP2;P2;SDS_P1;SDS_P2;PMS_P1;PMS_P2;Temp;Humidity;BMP_temperature;BMP_pressure;BME280_temperature;BME280_humidity;BME280_pressure;Samples;Min_cycle;Max_cycle;Signal;HPM_P1;HPM_P2
2022/07/08 00:02:20;;;;;;;10.05;2.95;;;;;;;13.99;78.18;101954.88;6181421;23;20029;-85
2022/07/08 00:04:48;;;;;;;9.35;2.30;;;;;;;13.97;78.14;101953.13;6203750;23;20561;-83
2022/07/08 00:07:15;;;;;;;11.35;2.85;;;;;;;13.93;78.18;101959.28;6204714;23;20020;-82
2022/07/08 00:09:41;;;;;;;8.75;2.13;;;;;;;13.93;77.91;101961.91;6204958;23;20035;-81
2022/07/08 00:12:09;;;;;;;9.80;2.60;;;;;;;13.93;78.14;101956.66;6203581;23;20017;-81
2022/07/08 00:14:38;;;;;;;6.93;1.83;;;;;;;13.92;77.99;101960.16;6204147;23;20068;-83
2022/07/08 00:17:06;;;;;;;5.40;1.77;;;;;;;13.89;77.90;101953.13;6204674;23;20013;-83
2022/07/08 00:19:33;;;;;;;12.48;2.67;;;;;;;13.86;77.64;101963.69;6176674;23;20020;-87
2022/07/08 00:22:00;;;;;;;9.27;1.98;;;;;;;13.77;78.12;101966.34;6176785;23;20017;-83
2022/07/08 00:24:27;;;;;;;12.40;2.28;;;;;;;13.68;78.65;101960.19;6199967;23;20026;-82
2022/07/08 00:26:54;;;;;;;13.80;2.97;;;;;;;13.63;79.14;101964.56;6204405;23;20030;-83
2022/07/08 00:29:21;;;;;;;9.65;1.98;;;;;;;13.61;79.18;101962.81;6206638;23;20031;-82
2022/07/08 00:31:47;;;;;;;7.30;1.88;;;;;;;13.66;79.02;101972.47;6206738;23;20020;-81
2022/07/08 00:34:14;;;;;;;10.75;2.30;;;;;;;13.70;78.73;101962.81;6178438;23;20553;-85
2022/07/08 00:36:43;;;;;;;8.00;2.58;;;;;;;13.70;79.08;101961.06;6179714;23;20059;-83
2022/07/08 00:39:18;;;;;;;11.05;2.10;;;;;;;13.70;78.30;101973.31;6177849;23;20013;-82
2022/07/08 00:41:45;;;;;;;12.40;1.85;;;;;;;13.66;78.63;101967.22;6203346;23;20092;-82
2022/07/08 00:44:12;;;;;;;8.88;2.22;;;;;;;13.58;78.64;101968.94;6199688;23;20019;-81
2022/07/08 00:46:41;;;;;;;7.82;2.03;;;;;;;13.50;79.53;101971.59;6202160;23;20028;-80
2022/07/08 00:49:08;;;;;;;7.03;2.20;;;;;;;13.39;80.20;101968.97;6205348;23;20017;-82
2022/07/08 00:51:39;;;;;;;6.70;2.33;;;;;;;13.29;80.64;101972.41;6180636;23;20024;-85
2022/07/08 00:54:06;;;;;;;7.95;2.25;;;;;;;13.20;81.04;101982.94;6202040;23;20017;-84
2022/07/08 00:56:35;;;;;;;7.00;1.35;;;;;;;13.12;81.48;101968.91;6205842;23;20017;-82
2022/07/08 00:59:05;;;;;;;7.95;2.85;;;;;;;13.03;82.35;101975.03;6208254;23;20700;-83
2022/07/08 01:01:34;;;;;;;5.60;2.05;;;;;;;12.98;82.66;101987.28;6207225;23;20023;-85
2022/07/08 01:04:04;;;;;;;7.20;2.00;;;;;;;12.90;82.77;101979.38;6177299;23;20036;-86
2022/07/08 01:06:31;;;;;;;12.60;2.20;;;;;;;12.80;83.77;101974.94;6180282;23;20029;-83
2022/07/08 01:08:58;;;;;;;7.85;2.25;;;;;;;12.75;84.38;101985.47;6205247;23;20428;-82
2022/07/08 01:11:26;;;;;;;12.23;2.22;;;;;;;12.69;84.98;101985.44;6179308;23;20441;-83
2022/07/08 01:13:53;;;;;;;6.72;2.40;;;;;;;12.64;85.57;101995.06;6203831;23;20035;-83
2022/07/08 01:16:20;;;;;;;6.10;1.98;;;;;;;12.58;85.99;101993.28;6182906;23;20111;-83
2022/07/08 01:18:47;;;;;;;9.02;2.45;;;;;;;12.51;86.21;101986.22;6180518;23;20459;-83
2022/07/08 01:21:16;;;;;;;8.60;1.88;;;;;;;12.49;86.71;102001.09;6205450;23;20024;-82
2022/07/08 01:23:47;;;;;;;9.20;2.53;;;;;;;12.45;86.94;102008.09;6178018;23;20527;-83
2022/07/08 01:26:17;;;;;;;7.65;2.33;;;;;;;12.45;87.02;102000.22;6204490;23;20105;-84
2022/07/08 01:28:44;;;;;;;10.60;1.75;;;;;;;12.45;86.72;102002.84;6204768;23;20024;-84
2022/07/08 01:31:11;;;;;;;6.43;1.80;;;;;;;12.45;86.50;102004.59;6203030;23;20021;-82
2022/07/08 01:33:41;;;;;;;15.88;2.95;;;;;;;12.45;86.78;102000.22;6200679;23;20700;-82
2022/07/08 01:36:09;;;;;;;4.43;1.52;;;;;;;12.54;86.30;102009.88;6179957;23;20094;-85
2022/07/08 01:38:38;;;;;;;8.82;1.85;;;;;;;12.64;85.59;102002.94;6206501;23;20419;-85
2022/07/08 01:41:05;;;;;;;12.82;2.17;;;;;;;12.69;85.51;102003.81;6180777;23;20320;-84
2022/07/08 01:43:32;;;;;;;6.78;1.67;;;;;;;12.75;85.24;102006.50;6205519;23;20659;-85
2022/07/08 01:46:01;;;;;;;9.18;2.50;;;;;;;12.76;85.48;102010.84;6207754;23;20328;-87
2022/07/08 01:48:31;;;;;;;10.07;2.28;;;;;;;12.72;85.59;102006.47;6205626;23;20687;-82
2022/07/08 01:51:08;;;;;;;8.73;2.70;;;;;;;12.63;86.45;102004.66;6181064;23;20021;-85
2022/07/08 01:53:35;;;;;;;8.65;1.73;;;;;;;12.55;87.23;102006.38;6204666;23;20023;-86
2022/07/08 01:56:02;;;;;;;13.73;2.78;;;;;;;12.46;87.95;101998.47;6208826;23;20071;-85
2022/07/08 01:58:28;;;;;;;8.45;2.15;;;;;;;12.37;88.66;101999.28;6213556;23;20493;-83
2022/07/08 02:00:58;;;;;;;15.00;3.08;;;;;;;12.31;89.42;101999.28;6188015;23;20025;-84
2022/07/08 02:03:26;;;;;;;6.40;2.05;;;;;;;12.26;90.94;102004.50;6211622;23;20017;-83
2022/07/08 02:05:53;;;;;;;11.38;2.03;;;;;;;12.22;90.91;101997.47;6214933;23;20063;-82
2022/07/08 02:08:20;;;;;;;8.43;2.35;;;;;;;12.17;91.39;101993.94;6189843;23;20048;-85
2022/07/08 02:13:33;;;;;;;16.17;3.60;;;;;;;12.14;92.56;101999.19;6218585;23;20048;-85
2022/07/08 02:16:00;;;;;;;12.52;2.97;;;;;;;12.08;92.61;101997.38;6215897;23;20027;-86
2022/07/08 02:18:27;;;;;;;13.88;2.95;;;;;;;12.06;92.99;102007.88;6180186;23;20025;-83
2022/07/08 02:20:54;;;;;;;7.57;2.22;;;;;;;12.05;93.10;102007.88;6206015;23;20024;-82
2022/07/08 02:23:23;;;;;;;10.10;2.30;;;;;;;12.04;93.56;102006.09;6204742;23;20017;-82
2022/07/08 02:25:52;;;;;;;9.10;1.80;;;;;;;12.02;94.02;102002.56;6180737;23;20036;-81
2022/07/08 02:28:21;;;;;;;9.20;1.92;;;;;;;12.02;93.88;102007.81;6205180;23;20029;-85
2022/07/08 02:30:54;;;;;;;13.50;2.40;;;;;;;12.01;93.93;102009.59;6178470;23;20067;-85
2022/07/08 02:33:32;;;;;;;10.10;2.25;;;;;;;11.97;93.94;102014.78;6200035;23;20023;-84
2022/07/08 02:35:59;;;;;;;7.05;1.85;;;;;;;11.95;94.98;102012.16;6203667;23;20020;-84
2022/07/08 02:38:36;;;;;;;;;;;;;;;;;;;;;
2022/07/08 02:41:04;;;;;;;7.85;1.85;;;;;;;11.90;94.94;102017.34;6180749;23;20658;-83
2022/07/08 02:43:33;;;;;;;7.93;1.77;;;;;;;11.85;95.43;102019.06;6203535;23;20012;-84
2022/07/08 02:46:07;;;;;;;13.27;3.00;;;;;;;11.84;95.57;102014.69;6205202;23;20017;-87
2022/07/08 02:48:35;;;;;;;7.43;2.22;;;;;;;11.81;96.00;102016.41;6180971;23;20020;-83
2022/07/08 02:51:03;;;;;;;6.88;3.33;;;;;;;11.75;96.08;102023.34;6205096;23;20040;-83
2022/07/08 02:53:32;;;;;;;13.10;2.40;;;;;;;11.72;96.86;102027.69;6201270;23;20013;-82
2022/07/08 02:56:04;;;;;;;11.55;2.00;;;;;;;11.66;97.25;102031.16;6179990;23;20016;-83
2022/07/08 02:58:30;;;;;;;10.05;2.30;;;;;;;11.66;96.80;102027.66;6181365;23;20611;-82
2022/07/08 03:01:00;;;;;;;5.85;2.03;;;;;;;11.66;97.25;102025.91;6204135;23;20016;-82
2022/07/08 03:03:27;;;;;;;9.65;2.05;;;;;;;11.66;97.23;102038.16;6200207;23;20020;-82
2022/07/08 03:05:53;;;;;;;10.55;1.83;;;;;;;11.62;97.10;102031.13;6202422;23;20063;-83
2022/07/08 03:08:20;;;;;;;10.80;2.08;;;;;;;11.59;97.17;102038.09;6177676;23;20067;-84
2022/07/08 03:10:50;;;;;;;9.40;2.42;;;;;;;11.57;97.58;102038.94;6199779;23;20021;-86
2022/07/08 03:13:17;;;;;;;15.27;2.67;;;;;;;11.56;97.58;102045.94;6172716;23;20531;-83
2022/07/08 03:15:44;;;;;;;10.73;2.55;;;;;;;11.54;97.77;102047.66;6202995;23;20024;-85
2022/07/08 03:18:11;;;;;;;5.13;1.88;;;;;;;11.51;97.83;102036.25;6202566;23;20024;-86
2022/07/08 03:20:38;;;;;;;11.68;2.90;;;;;;;11.54;98.52;102045.03;6202546;23;20017;-82
2022/07/08 03:23:05;;;;;;;7.80;1.90;;;;;;;11.59;97.89;102048.56;6178378;23;20735;-88
2022/07/08 03:25:33;;;;;;;12.70;2.35;;;;;;;11.63;97.48;102056.47;6178596;23;20025;-86
2022/07/08 03:28:00;;;;;;;9.30;2.08;;;;;;;11.68;97.46;102052.13;6179520;23;20747;-83
2022/07/08 03:30:27;;;;;;;8.18;1.98;;;;;;;11.78;96.88;102053.97;6180928;23;20424;-83
2022/07/08 03:32:55;;;;;;;12.55;2.58;;;;;;;11.84;96.47;102047.91;6206229;23;20021;-83
2022/07/08 03:35:26;;;;;;;6.90;2.25;;;;;;;11.91;95.63;102047.09;6178151;23;20441;-84
2022/07/08 03:37:53;;;;;;;5.88;1.35;;;;;;;11.94;95.48;102054.09;6205343;23;20020;-83
2022/07/08 03:43:04;;;;;;;;;;;;;;;12.06;94.95;102068.25;6178962;23;20020;-87
2022/07/08 03:45:31;;;;;;;8.60;2.83;;;;;;;12.11;94.05;102052.53;6205179;23;19920;-83
2022/07/08 03:48:00;;;;;;;9.95;2.05;;;;;;;12.15;93.65;102063.91;6205633;23;20044;-83
2022/07/08 03:50:27;;;;;;;13.05;2.03;;;;;;;12.20;93.11;102059.56;6179136;23;20013;-83
2022/07/08 03:52:56;;;;;;;9.95;1.90;;;;;;;12.30;92.54;102071.91;6203565;23;20020;-83
2022/07/08 03:55:25;;;;;;;6.53;2.22;;;;;;;12.43;92.00;102077.25;6201525;23;20032;-84
2022/07/08 03:57:53;;;;;;;7.60;1.67;;;;;;;12.57;90.99;102088.72;6179698;23;20017;-83
2022/07/08 04:00:23;;;;;;;7.70;1.80;;;;;;;12.70;89.71;102092.28;6167172;23;20714;-85
2022/07/08 04:02:52;;;;;;;7.75;2.05;;;;;;;12.80;88.96;102094.09;6174345;23;20380;-86
2022/07/08 04:05:21;;;;;;;11.48;2.10;;;;;;;12.90;88.08;102095.00;6138323;23;20081;-86
2022/07/08 04:08:06;;;;;;;;;;;;;;;;;;;;;
2022/07/08 04:10:49;;;;;;;10.60;2.35;;;;;;;13.07;86.80;102103.84;6173541;23;20016;-87
2022/07/08 04:13:19;;;;;;;11.60;1.90;;;;;;;13.15;86.10;102103.00;6188852;23;20047;-85
2022/07/08 04:15:49;;;;;;;8.75;1.67;;;;;;;13.22;85.59;102110.03;6199682;23;20712;-85
2022/07/08 04:18:24;;;;;;;9.02;2.00;;;;;;;13.29;85.09;102118.81;6172686;23;20028;-86
2022/07/08 04:20:52;;;;;;;9.23;1.63;;;;;;;13.32;84.93;102111.81;6168723;23;20308;-84
2022/07/08 04:23:25;;;;;;;6.88;2.40;;;;;;;13.37;84.79;102111.88;6165795;23;20067;-83
2022/07/08 04:25:56;;;;;;;9.52;2.22;;;;;;;13.39;84.88;102118.03;6173192;23;20025;-86
2022/07/08 04:28:33;;;;;;;10.10;2.65;;;;;;;13.42;84.92;102122.41;6170055;23;20083;-87
2022/07/08 04:31:01;;;;;;;6.07;1.88;;;;;;;13.44;84.92;102120.66;6197997;23;20017;-85
2022/07/08 04:33:28;;;;;;;7.05;2.28;;;;;;;13.46;84.97;102122.41;6192309;23;20024;-84
2022/07/08 04:35:55;;;;;;;11.48;3.63;;;;;;;13.48;84.96;102120.66;6195808;23;20359;-84
2022/07/08 04:38:22;;;;;;;9.18;2.35;;;;;;;13.52;84.58;102125.06;6170640;23;20017;-83
2022/07/08 04:40:51;;;;;;;11.13;2.63;;;;;;;13.56;84.61;102128.59;6195043;23;20020;-85
2022/07/08 04:43:18;;;;;;;9.18;2.80;;;;;;;13.60;84.68;102132.06;6197826;23;20079;-84
2022/07/08 04:45:56;;;;;;;10.65;4.00;;;;;;;13.64;84.34;102129.47;6173294;23;20688;-83
2022/07/08 04:48:33;;;;;;;4.45;1.77;;;;;;;13.65;84.57;102133.88;6171831;23;20388;-85
2022/07/08 04:51:11;;;;;;;6.22;2.00;;;;;;;13.67;84.17;102137.34;6190550;23;20032;-82
2022/07/08 04:54:03;;;;;;;9.82;2.10;;;;;;;13.67;84.37;102139.13;6167043;23;20016;-84
2022/07/08 04:56:45;;;;;;;8.93;2.00;;;;;;;13.70;84.19;102147.00;6174787;23;20447;-84
2022/07/08 04:59:12;;;;;;;6.60;2.15;;;;;;;13.75;83.74;102150.53;6192958;23;20028;-81
2022/07/08 05:01:42;;;;;;;10.35;2.22;;;;;;;13.77;83.32;102147.94;6171110;23;20147;-86
2022/07/08 05:04:11;;;;;;;8.90;2.00;;;;;;;13.81;82.91;102145.28;6194697;23;20387;-85
2022/07/08 05:06:49;;;;;;;6.20;1.90;;;;;;;13.82;82.73;102139.16;6173296;23;20016;-84
2022/07/08 05:09:27;;;;;;;6.82;2.25;;;;;;;13.86;82.04;102138.28;6171230;23;20031;-83
2022/07/08 05:11:54;;;;;;;5.28;2.00;;;;;;;13.93;81.90;102146.19;6194672;23;20052;-86
2022/07/08 05:14:21;;;;;;;4.15;1.67;;;;;;;13.96;81.26;102140.91;6168876;23;20048;-84
2022/07/08 05:16:54;;;;;;;7.35;2.22;;;;;;;13.99;81.04;102144.44;6172769;23;20024;-85
2022/07/08 05:19:31;;;;;;;7.45;1.73;;;;;;;14.05;80.74;102139.19;6194090;23;20035;-87
2022/07/08 05:21:59;;;;;;;10.52;2.03;;;;;;;14.13;80.26;102128.66;6170891;23;20260;-86
2022/07/08 05:24:29;;;;;;;4.95;1.65;;;;;;;14.22;79.23;102140.91;6169102;23;20067;-81
2022/07/08 05:26:59;;;;;;;8.90;1.83;;;;;;;14.27;78.80;102133.03;6145568;23;20020;-85
2022/07/08 05:29:26;;;;;;;13.23;2.08;;;;;;;14.33;78.61;102139.16;6196086;23;20075;-83
2022/07/08 05:31:54;;;;;;;9.50;2.42;;;;;;;14.35;78.18;102145.31;6200887;23;20017;-87
2022/07/08 05:34:33;;;;;;;;;;;;;;;;;;;;;
2022/07/08 05:37:11;;;;;;;14.63;3.97;;;;;;;14.38;78.01;102157.63;6198269;23;20546;-84
2022/07/08 05:39:43;;;;;;;6.88;2.10;;;;;;;14.42;77.83;102151.47;6193593;23;20009;-86
2022/07/08 05:42:27;;;;;;;7.95;2.25;;;;;;;14.46;77.54;102153.22;6168103;23;20027;-84
2022/07/08 05:44:56;;;;;;;4.72;2.03;;;;;;;14.53;76.95;102154.06;6171103;23;20028;-85
2022/07/08 05:47:28;;;;;;;14.35;3.17;;;;;;;14.54;76.47;102161.97;6194836;23;20027;-86
2022/07/08 05:49:56;;;;;;;5.43;1.40;;;;;;;14.55;76.45;102161.09;6166441;23;20025;-86
2022/07/08 05:52:26;;;;;;;7.55;1.38;;;;;;;14.60;76.23;102163.75;6170658;23;20088;-86
2022/07/08 05:54:54;;;;;;;10.70;1.52;;;;;;;14.60;75.80;102170.75;6200420;23;20044;-85
2022/07/08 05:57:20;;;;;;;7.53;1.90;;;;;;;14.63;75.66;102171.63;6176622;23;20020;-86
2022/07/08 05:59:51;;;;;;;11.13;1.92;;;;;;;14.74;75.67;102168.13;6184530;23;20072;-85
2022/07/08 06:02:39;;;;;;;8.80;1.90;;;;;;;14.84;74.59;102173.38;6185267;23;20024;-84
2022/07/08 06:05:07;;;;;;;7.03;2.00;;;;;;;14.86;74.12;102170.72;6206561;23;20027;-83
2022/07/08 06:07:33;;;;;;;7.35;1.13;;;;;;;14.92;74.21;102165.44;6206384;23;20048;-85
2022/07/08 06:10:10;;;;;;;8.90;1.88;;;;;;;15.00;73.70;102163.66;6181391;23;20054;-82
2022/07/08 06:12:36;;;;;;;10.48;1.50;;;;;;;15.07;73.60;102168.91;6200534;23;20052;-83
2022/07/08 06:15:05;;;;;;;8.68;1.80;;;;;;;15.12;73.44;102168.03;6203168;23;20400;-83
2022/07/08 06:17:32;;;;;;;7.43;1.40;;;;;;;15.24;71.61;102167.09;6191704;23;20052;-81
2022/07/08 06:20:02;;;;;;;10.45;2.25;;;;;;;15.27;71.70;102158.31;6154097;23;20459;-84
2022/07/08 06:22:31;;;;;;;5.00;1.20;;;;;;;15.38;71.34;102167.03;6202426;23;20024;-85
2022/07/08 06:25:10;;;;;;;7.82;1.40;;;;;;;15.44;70.66;102169.63;6203369;23;20028;-85
2022/07/08 06:27:37;;;;;;;5.10;1.58;;;;;;;15.51;69.87;102174.00;6203583;23;20052;-82
2022/07/08 06:30:10;;;;;;;5.20;1.20;;;;;;;15.55;69.32;102172.22;6202950;23;20327;-86
2022/07/08 06:32:38;;;;;;;5.85;2.53;;;;;;;15.64;68.21;102180.06;6201273;23;20108;-84
2022/07/08 06:35:17;;;;;;;4.78;1.23;;;;;;;15.70;68.78;102181.81;6202082;23;20012;-86
2022/07/08 06:37:43;;;;;;;7.13;1.33;;;;;;;15.76;68.15;102178.25;6172866;23;20040;-87
2022/07/08 06:40:14;;;;;;;8.48;1.70;;;;;;;15.85;67.87;102191.44;6177077;23;20440;-84
2022/07/08 06:42:41;;;;;;;5.22;1.17;;;;;;;15.99;67.76;102191.34;6203054;23;20012;-83
2022/07/08 06:45:14;;;;;;;7.47;1.77;;;;;;;16.20;65.99;102182.38;6201297;23;20016;-83
2022/07/08 06:47:45;;;;;;;4.05;0.90;;;;;;;16.25;65.96;102179.72;6176421;23;20021;-83
2022/07/08 06:50:13;;;;;;;6.65;2.28;;;;;;;16.29;65.31;102186.72;6200842;23;20031;-84
2022/07/08 06:55:23;;;;;;;7.63;1.45;;;;;;;16.29;65.72;102187.59;6177966;23;20017;-86
2022/07/08 06:57:54;;;;;;;3.70;1.00;;;;;;;16.39;64.09;102188.41;6181837;23;20024;-86
2022/07/08 07:00:22;;;;;;;2.97;0.88;;;;;;;16.43;64.22;102187.47;6181151;23;20017;-83
2022/07/08 07:02:50;;;;;;;4.80;0.98;;;;;;;16.51;63.86;102190.94;6202304;23;20021;-87
2022/07/08 07:05:21;;;;;;;9.88;2.20;;;;;;;16.48;64.04;102204.19;6200865;23;20023;-85
2022/07/08 07:07:51;;;;;;;4.10;1.23;;;;;;;16.51;63.65;102201.50;6179032;23;20017;-85
2022/07/08 07:10:18;;;;;;;7.63;1.38;;;;;;;16.51;62.67;102209.44;6203644;23;20017;-85
2022/07/08 07:12:45;;;;;;;8.85;2.33;;;;;;;16.53;62.45;102204.13;6184095;23;20024;-84
2022/07/08 07:15:12;;;;;;;2.15;0.73;;;;;;;16.66;61.93;102205.78;6183839;23;20016;-84
2022/07/08 07:17:48;;;;;;;4.43;1.08;;;;;;;16.76;61.21;102210.97;6187718;23;20729;-83
2022/07/08 07:20:15;;;;;;;6.97;1.33;;;;;;;16.80;61.68;102208.28;6187155;23;20048;-84
2022/07/08 07:22:42;;;;;;;7.68;1.58;;;;;;;16.86;61.95;102216.16;6185348;23;20024;-84
2022/07/08 07:25:10;;;;;;;9.85;1.90;;;;;;;16.88;61.46;102216.13;6207795;23;20128;-86
2022/07/08 07:28:03;;;;;;;;;;;;;;;;;;;;;
2022/07/08 07:30:46;;;;;;;4.95;0.93;;;;;;;17.09;60.27;102215.09;6196809;23;20024;-84
2022/07/08 07:33:13;;;;;;;7.90;1.70;;;;;;;17.16;60.14;102216.75;6218518;23;20021;-84
2022/07/08 07:35:40;;;;;;;4.28;0.88;;;;;;;17.34;58.88;102213.00;6223022;23;20020;-83
2022/07/08 07:38:08;;;;;;;3.90;0.85;;;;;;;17.46;58.53;102213.75;6200300;23;20016;-84
2022/07/08 07:40:35;;;;;;;4.43;1.13;;;;;;;17.54;57.58;102217.16;6200259;23;20075;-84
2022/07/08 07:43:02;;;;;;;5.03;1.25;;;;;;;17.63;57.36;102222.34;6192851;23;20024;-84
2022/07/08 07:45:29;;;;;;;5.65;0.73;;;;;;;17.74;57.76;102222.19;6208870;23;20016;-88
2022/07/08 07:47:57;;;;;;;4.03;1.35;;;;;;;17.89;57.36;102222.91;6183293;23;20071;-84
2022/07/08 07:50:25;;;;;;;10.45;1.58;;;;;;;18.19;57.38;102224.22;6206134;23;20013;-83
2022/07/08 07:52:54;;;;;;;6.43;1.60;;;;;;;18.50;55.63;102216.66;6205297;23;20056;-84
2022/07/08 07:55:24;;;;;;;6.68;1.00;;;;;;;18.80;54.98;102218.78;6181424;23;20500;-83
2022/07/08 07:57:51;;;;;;;3.38;0.63;;;;;;;19.06;53.93;102218.31;6207667;23;20013;-84
2022/07/08 08:00:19;;;;;;;5.30;0.95;;;;;;;19.53;53.00;102212.94;6181620;23;20469;-83
2022/07/08 08:02:45;;;;;;;9.18;1.35;;;;;;;20.28;50.87;102223.63;6181126;23;20052;-85
2022/07/08 08:05:13;;;;;;;6.75;1.40;;;;;;;20.96;49.42;102232.56;6177510;23;20539;-84
2022/07/08 08:07:42;;;;;;;6.72;1.30;;;;;;;21.39;48.09;102229.59;6200872;23;20024;-86
2022/07/08 08:10:13;;;;;;;4.35;1.10;;;;;;;21.51;48.03;102241.66;6178667;23;20028;-83
2022/07/08 08:12:40;;;;;;;5.88;2.30;;;;;;;21.49;47.22;102244.38;6183967;23;20067;-84
2022/07/08 08:15:08;;;;;;;6.68;1.70;;;;;;;21.52;47.48;102240.75;6209024;23;20027;-83
2022/07/08 08:17:42;;;;;;;5.55;0.98;;;;;;;21.71;46.78;102241.13;6208520;23;20155;-81
2022/07/08 08:20:12;;;;;;;3.15;0.80;;;;;;;21.84;46.57;102238.91;6207148;23;20021;-85
2022/07/08 08:22:40;;;;;;;5.07;1.42;;;;;;;21.67;46.50;102232.34;6183461;23;20017;-85
2022/07/08 08:25:07;;;;;;;5.22;0.85;;;;;;;21.15;47.17;102232.91;6206987;23;20020;-84
2022/07/08 08:27:40;;;;;;;4.07;1.13;;;;;;;20.35;48.93;102232.34;6208347;23;20013;-83
2022/07/08 08:30:07;;;;;;;4.03;1.00;;;;;;;20.43;49.17;102234.81;6205223;23;20020;-83
2022/07/08 08:32:35;;;;;;;4.28;1.10;;;;;;;21.28;47.75;102233.44;6181691;23;20471;-81
2022/07/08 08:35:01;;;;;;;7.53;1.10;;;;;;;22.45;45.25;102226.31;6179580;23;20059;-83
2022/07/08 08:37:28;;;;;;;6.35;1.65;;;;;;;23.36;43.28;102216.88;6206145;23;20070;-84
2022/07/08 08:39:56;;;;;;;2.83;1.20;;;;;;;23.68;42.20;102217.41;6181310;23;20084;-88
2022/07/08 08:42:33;;;;;;;4.53;1.52;;;;;;;23.10;43.25;102216.03;6180141;23;20036;-84
2022/07/08 08:45:03;;;;;;;5.07;0.80;;;;;;;22.98;42.61;102215.59;6181184;23;20025;-82
2022/07/08 08:47:33;;;;;;;2.90;1.00;;;;;;;22.40;43.94;102222.06;6205552;23;20017;-85
2022/07/08 08:52:58;;;;;;;;;;;;;;;21.31;46.49;102228.03;6206194;23;20022;-83
2022/07/08 08:55:35;;;;;;;5.47;1.60;;;;;;;22.38;44.69;102224.75;6176375;23;20396;-84
2022/07/08 08:58:09;;;;;;;5.15;0.98;;;;;;;23.45;41.93;102215.63;6202512;23;20024;-88
2022/07/08 09:00:36;;;;;;;4.72;1.15;;;;;;;23.28;41.76;102214.50;6206630;23;20017;-83
2022/07/08 09:03:05;;;;;;;4.38;1.23;;;;;;;23.32;41.76;102212.56;6206515;23;20375;-88
2022/07/08 09:05:32;;;;;;;6.20;1.13;;;;;;;22.76;41.63;102197.66;6179601;23;20105;-83
2022/07/08 09:07:59;;;;;;;6.05;1.33;;;;;;;22.13;43.86;102212.19;6205720;23;20021;-86
2022/07/08 09:10:26;;;;;;;3.90;1.00;;;;;;;22.88;42.73;102220.38;6204392;23;20483;-86
2022/07/08 09:13:16;;;;;;;6.10;1.40;;;;;;;24.34;39.60;102213.91;6181722;23;20020;-85
2022/07/08 09:15:50;;;;;;;6.07;2.03;;;;;;;25.74;37.24;102216.59;6208576;23;20020;-83
2022/07/08 09:18:21;;;;;;;8.35;1.17;;;;;;;26.50;35.95;102220.94;6207107;23;20549;-87
2022/07/08 09:20:53;;;;;;;8.77;1.80;;;;;;;26.28;36.10;102213.97;6203127;23;20040;-85
2022/07/08 09:23:29;;;;;;;4.43;0.93;;;;;;;25.82;36.79;102216.22;6204564;23;20013;-86
2022/07/08 09:25:59;;;;;;;4.57;1.05;;;;;;;26.21;36.06;102208.03;6182329;23;20031;-82
2022/07/08 09:28:36;;;;;;;2.92;1.33;;;;;;;27.12;34.82;102213.22;6207116;23;20025;-84
2022/07/08 09:31:06;;;;;;;5.93;1.05;;;;;;;28.40;33.97;102210.50;6208141;23;20027;-87
2022/07/08 09:33:34;;;;;;;2.00;0.82;;;;;;;28.29;33.04;102207.56;6206748;23;20333;-83
2022/07/08 09:36:06;;;;;;;4.20;0.77;;;;;;;27.01;34.53;102215.59;6204712;23;20070;-86
2022/07/08 09:38:36;;;;;;;2.22;0.82;;;;;;;25.70;36.88;102221.25;6207363;23;20021;-85
2022/07/08 09:41:04;;;;;;;1.27;0.70;;;;;;;25.55;37.47;102216.59;6205021;23;20439;-84
2022/07/08 09:43:34;;;;;;;2.97;0.90;;;;;;;26.19;36.15;102212.63;6207195;23;20096;-82
2022/07/08 09:46:07;;;;;;;4.68;0.95;;;;;;;25.56;37.45;102211.16;6187155;23;20016;-83
2022/07/08 09:48:35;;;;;;;5.88;1.38;;;;;;;25.20;37.62;102217.28;6210525;23;20355;-84
2022/07/08 09:51:07;;;;;;;4.30;1.55;;;;;;;24.64;38.79;102210.88;6209330;23;20035;-86
2022/07/08 09:53:37;;;;;;;5.75;1.65;;;;;;;24.63;39.23;102218.91;6210111;23;20079;-82
2022/07/08 09:56:14;;;;;;;5.43;0.93;;;;;;;25.36;38.28;102216.63;6190083;23;20499;-89
2022/07/08 09:58:40;;;;;;;5.18;1.10;;;;;;;25.89;37.01;102214.97;6216236;23;20039;-82
2022/07/08 10:01:07;;;;;;;2.78;1.23;;;;;;;26.02;36.79;102207.19;6212687;23;20400;-83
2022/07/08 10:03:35;;;;;;;4.03;1.17;;;;;;;26.85;36.13;102215.56;6183073;23;20021;-86
2022/07/08 10:06:03;;;;;;;5.63;1.17;;;;;;;28.16;33.27;102207.41;6183693;23;20459;-90
2022/07/08 10:08:30;;;;;;;4.60;1.70;;;;;;;27.91;34.08;102214.22;6210583;23;20017;-88
2022/07/08 10:10:59;;;;;;;4.18;0.95;;;;;;;27.34;34.30;102207.50;6183868;23;20609;-83
2022/07/08 10:13:26;;;;;;;5.97;1.80;;;;;;;26.46;35.89;102219.34;6206384;23;20379;-85
2022/07/08 10:16:02;;;;;;;4.20;1.38;;;;;;;25.36;37.36;102214.81;6209983;23;20026;-84
2022/07/08 10:18:38;;;;;;;3.17;1.27;;;;;;;24.23;39.33;102221.50;6208045;23;20459;-85
2022/07/08 10:21:10;;;;;;;3.75;1.45;;;;;;;23.56;41.10;102229.47;6182623;23;20016;-83
2022/07/08 10:23:47;;;;;;;4.03;1.02;;;;;;;22.85;42.30;102229.38;6207345;23;20048;-84
2022/07/08 10:26:17;;;;;;;4.90;1.13;;;;;;;22.14;43.78;102227.28;6209356;23;20021;-84
2022/07/08 10:28:45;;;;;;;6.47;1.13;;;;;;;21.75;44.78;102232.97;6206614;23;20071;-82
2022/07/08 10:31:24;;;;;;;5.07;1.27;;;;;;;21.64;45.62;102237.75;6182893;23;20028;-83
2022/07/08 10:33:52;;;;;;;4.78;1.10;;;;;;;21.35;46.28;102234.13;6178768;23;20035;-84
2022/07/08 10:36:22;;;;;;;3.45;1.00;;;;;;;21.36;46.46;102235.88;6181776;23;20020;-84
2022/07/08 10:38:50;;;;;;;6.78;0.88;;;;;;;21.77;45.66;102236.47;6207511;23;20095;-84
2022/07/08 10:41:26;;;;;;;4.22;1.27;;;;;;;21.91;45.83;102235.16;6207073;23;20104;-85
2022/07/08 10:44:00;;;;;;;3.55;0.80;;;;;;;21.86;45.87;102229.97;6203584;23;20031;-84
2022/07/08 10:46:28;;;;;;;3.13;1.02;;;;;;;22.07;45.71;102231.09;6206509;23;20029;-86
2022/07/08 10:49:03;;;;;;;3.15;0.95;;;;;;;22.20;45.67;102230.69;6206629;23;20042;-86
2022/07/08 10:51:37;;;;;;;3.47;0.90;;;;;;;22.17;45.94;102230.78;6206440;23;20474;-82
2022/07/08 10:54:07;;;;;;;3.33;1.70;;;;;;;22.22;45.90;102234.19;6206906;23;20021;-85
2022/07/08 10:56:59;;;;;;;2.72;1.15;;;;;;;22.36;45.56;102223.94;6208104;23;20068;-84
2022/07/08 10:59:35;;;;;;;2.67;0.70;;;;;;;22.66;45.06;102215.81;6212056;23;20021;-82
2022/07/08 11:02:21;;;;;;;8.73;1.80;;;;;;;23.10;44.46;102218.69;6211449;23;20055;-86
2022/07/08 11:04:53;;;;;;;5.50;0.88;;;;;;;23.60;43.21;102214.19;6185533;23;20506;-84
2022/07/08 11:10:32;;;;;;;6.78;1.55;;;;;;;23.61;43.20;102218.59;6215293;23;20043;-84
2022/07/08 11:13:00;;;;;;;3.05;1.00;;;;;;;23.67;43.00;102214.81;6192162;23;20068;-81
2022/07/08 11:15:33;;;;;;;3.85;0.65;;;;;;;23.99;42.58;102210.00;6195105;23;20055;-82
2022/07/08 11:18:24;;;;;;;3.78;0.85;;;;;;;24.30;42.11;102219.44;6219527;23;20012;-83
2022/07/08 11:21:27;;;;;;;5.72;0.82;;;;;;;24.01;42.12;102221.50;6215301;23;20462;-83
2022/07/08 11:23:54;;;;;;;7.15;1.23;;;;;;;23.56;43.29;102224.13;6176763;23;20020;-85
2022/07/08 11:26:22;;;;;;;4.38;1.58;;;;;;;23.41;43.68;102227.38;6203040;23;20023;-82
2022/07/08 11:28:51;;;;;;;1.20;0.60;;;;;;;23.22;44.08;102227.19;6204269;23;20032;-84
2022/07/08 11:31:28;;;;;;;4.65;0.98;;;;;;;22.94;44.68;102230.84;6228149;23;20023;-84
2022/07/08 11:33:55;;;;;;;5.35;0.90;;;;;;;22.69;45.42;102220.19;6197424;23;20331;-82
2022/07/08 11:36:22;;;;;;;3.83;0.70;;;;;;;22.66;45.76;102225.59;6194181;23;20016;-84
2022/07/08 11:38:51;;;;;;;4.72;1.20;;;;;;;22.74;45.79;102223.56;6214697;23;20123;-82
2022/07/08 11:41:20;;;;;;;7.50;1.17;;;;;;;22.79;45.90;102227.81;6196666;23;20051;-87
2022/07/08 11:43:51;;;;;;;4.85;1.02;;;;;;;22.44;46.35;102224.56;6201588;23;20012;-83
2022/07/08 11:46:22;;;;;;;1.98;0.73;;;;;;;22.33;46.74;102217.81;6202392;23;20036;-86
2022/07/08 11:48:50;;;;;;;4.70;1.10;;;;;;;22.17;47.43;102218.31;6222350;23;20020;-84
2022/07/08 11:51:22;;;;;;;4.50;1.30;;;;;;;22.03;48.01;102224.13;6222818;23;20059;-85
2022/07/08 11:53:49;;;;;;;6.30;1.48;;;;;;;22.08;47.90;102223.94;6223647;23;20040;-88
2022/07/08 11:56:18;;;;;;;3.85;0.75;;;;;;;22.18;47.99;102225.41;6200369;23;20040;-85
2022/07/08 11:58:52;;;;;;;3.10;1.17;;;;;;;21.99;48.45;102217.13;6225084;23;20020;-83